Time;durP1;ratioP1;P1;durP2;ratioP2;P2;SDS_P1;SDS_P2;PMS_P1;PMS_P2;Temp;Humidity;BMP_temperature;BMP_pressure;BME280_temperature;BME280_humidity;BME280_pressure;Samples;Min_cycle;Max_cycle;Signal;HPM_P1;HPM_P2
2023/06/27 00:00:33;;;;;;;5.57;3.10;;;;;;;;;;5021751;28;20216;-71
2023/06/27 00:03:03;;;;;;;4.80;3.07;;;;;;;;;;5021700;28;20212;-71
2023/06/27 00:05:31;;;;;;;6.27;2.50;;;;;;;;;;5021542;28;20659;-71
2023/06/27 00:07:59;;;;;;;3.93;2.57;;;;;;;;;;5021136;28;20250;-71
2023/06/27 00:10:27;;;;;;;3.20;2.60;;;;;;;;;;5021413;28;20236;-71
2023/06/27 00:12:56;;;;;;;4.73;2.47;;;;;;;;;;5021571;28;20215;-70
2023/06/27 00:15:26;;;;;;;13.50;9.00;;;;;;;;;;5021215;28;20229;-71
2023/06/27 00:17:55;;;;;;;3.20;2.60;;;;;;;;;;5021473;28;20215;-71
2023/06/27 00:20:27;;;;;;;4.77;2.83;;;;;;;;;;5021419;28;20210;-71
2023/06/27 00:23:16;;;;;;;4.47;2.50;;;;;;;;;;5020627;28;20578;-71
2023/06/27 00:25:44;;;;;;;4.67;1.97;;;;;;;;;;5015539;28;20734;-71
2023/06/27 00:28:12;;;;;;;3.10;2.03;;;;;;;;;;5021310;28;20209;-71
2023/06/27 00:30:40;;;;;;;4.63;2.03;;;;;;;;;;5021547;28;20235;-71
2023/06/27 00:33:09;;;;;;;3.00;2.03;;;;;;;;;;5032360;28;20211;-71
2023/06/27 00:35:39;;;;;;;3.83;2.60;;;;;;;;;;5020907;28;20213;-71
2023/06/27 00:38:08;;;;;;;3.23;2.20;;;;;;;;;;5020921;28;20245;-71
2023/06/27 00:40:36;;;;;;;4.17;1.80;;;;;;;;;;5020790;28;20252;-71
2023/06/27 00:43:04;;;;;;;6.03;2.30;;;;;;;;;;5021101;28;20211;-71
2023/06/27 00:45:32;;;;;;;2.27;1.73;;;;;;;;;;5020858;28;20261;-71
2023/06/27 00:48:01;;;;;;;3.50;1.97;;;;;;;;;;5021082;28;20217;-71
2023/06/27 00:50:30;;;;;;;3.57;1.97;;;;;;;;;;5021225;28;20300;-71
2023/06/27 00:53:00;;;;;;;5.43;2.00;;;;;;;;;;5020557;28;20209;-71
2023/06/27 00:55:30;;;;;;;3.27;2.10;;;;;;;;;;5020678;28;20221;-71
2023/06/27 00:57:58;;;;;;;5.83;1.97;;;;;;;;;;5020846;28;20234;-71
2023/06/27 01:00:26;;;;;;;4.43;2.00;;;;;;;;;;5020663;28;20217;-71
2023/06/27 01:02:54;;;;;;;3.70;1.90;;;;;;;;;;5020570;28;20209;-71
2023/06/27 01:05:24;;;;;;;4.67;2.30;;;;;;;;;;5020739;28;20568;-71
2023/06/27 01:07:53;;;;;;;2.73;1.90;;;;;;;;;;5020053;28;20202;-71
2023/06/27 01:10:27;;;;;;;5.07;1.90;;;;;;;;;;5019979;28;20621;-71
2023/06/27 01:12:58;;;;;;;7.20;2.17;;;;;;;;;;5020190;28;20287;-71
2023/06/27 01:15:27;;;;;;;3.40;1.80;;;;;;;;;;5020546;28;20210;-71
2023/06/27 01:17:56;;;;;;;4.27;2.10;;;;;;;;;;5020379;28;20366;-71
2023/06/27 01:20:25;;;;;;;3.60;2.13;;;;;;;;;;5020154;28;20238;-71
2023/06/27 01:23:01;;;;;;;3.50;2.00;;;;;;;;;;5019499;28;20232;-71
2023/06/27 01:25:32;;;;;;;1.93;1.67;;;;;;;;;;5026523;28;20209;-71
2023/06/27 01:28:00;;;;;;;2.40;2.20;;;;;;;;;;5020243;28;20238;-72
2023/06/27 01:30:28;;;;;;;1.90;1.63;;;;;;;;;;5020235;28;20241;-71
2023/06/27 01:32:57;;;;;;;3.03;1.97;;;;;;;;;;5030510;28;20611;-70
2023/06/27 01:35:28;;;;;;;4.07;2.07;;;;;;;;;;5020067;28;20264;-71
2023/06/27 01:38:00;;;;;;;5.07;1.97;;;;;;;;;;5018996;28;20701;-71
2023/06/27 01:40:29;;;;;;;3.67;1.90;;;;;;;;;;5018399;28;20209;-71
2023/06/27 01:43:02;;;;;;;4.17;1.87;;;;;;;;;;5018912;28;20209;-71
2023/06/27 01:45:30;;;;;;;2.43;2.00;;;;;;;;;;5017991;28;20226;-71
2023/06/27 01:47:59;;;;;;;3.23;1.93;;;;;;;;;;5019970;28;20206;-70
2023/06/27 01:50:27;;;;;;;4.33;2.03;;;;;;;;;;5023671;28;20212;-70
2023/06/27 01:52:56;;;;;;;4.43;1.80;;;;;;;;;;5027960;28;20658;-71
2023/06/27 01:55:24;;;;;;;3.17;2.03;;;;;;;;;;5019573;28;20241;-70
2023/06/27 01:57:52;;;;;;;2.47;1.90;;;;;;;;;;5019570;28;20237;-70
2023/06/27 02:00:21;;;;;;;4.43;1.80;;;;;;;;;;5019352;28;20227;-70
2023/06/27 02:02:49;;;;;;;3.77;2.03;;;;;;;;;;5019253;28;20283;-70
2023/06/27 02:05:17;;;;;;;1.70;1.60;;;;;;;;;;5019436;28;20249;-70
2023/06/27 02:07:45;;;;;;;4.27;1.70;;;;;;;;;;5014652;28;20204;-71
2023/06/27 02:10:13;;;;;;;3.07;1.60;;;;;;;;;;5004618;28;20231;-70
2023/06/27 02:12:41;;;;;;;4.47;1.77;;;;;;;;;;5007314;28;20210;-70
2023/06/27 02:15:10;;;;;;;4.40;1.90;;;;;;;;;;5009631;28;20207;-70
2023/06/27 02:17:39;;;;;;;4.10;1.57;;;;;;;;;;5015756;28;20224;-70
2023/06/27 02:20:08;;;;;;;4.83;1.83;;;;;;;;;;5007965;28;20212;-70
2023/06/27 02:22:36;;;;;;;4.23;1.80;;;;;;;;;;5007376;28;20703;-70
2023/06/27 02:25:04;;;;;;;3.40;1.73;;;;;;;;;;5022494;28;20204;-70
2023/06/27 02:27:32;;;;;;;2.97;1.73;;;;;;;;;;5018906;28;20246;-70
2023/06/27 02:30:00;;;;;;;3.47;1.50;;;;;;;;;;5019073;28;20208;-70
2023/06/27 02:32:28;;;;;;;2.57;1.70;;;;;;;;;;5031307;28;20236;-70
2023/06/27 02:34:57;;;;;;;2.77;1.73;;;;;;;;;;5018956;28;20683;-70
2023/06/27 02:37:25;;;;;;;4.83;2.07;;;;;;;;;;5018464;28;20238;-70
2023/06/27 02:39:54;;;;;;;3.70;1.60;;;;;;;;;;5019002;28;20204;-70
2023/06/27 02:42:22;;;;;;;3.43;1.80;;;;;;;;;;5017384;28;20220;-70
2023/06/27 02:44:51;;;;;;;1.80;1.60;;;;;;;;;;5019451;28;20196;-70
2023/06/27 02:47:19;;;;;;;3.17;1.60;;;;;;;;;;5015359;28;20200;-70
2023/06/27 02:49:47;;;;;;;3.60;2.10;;;;;;;;;;5006734;28;20215;-70
2023/06/27 02:52:17;;;;;;;7.23;2.10;;;;;;;;;;5014692;28;20694;-70
2023/06/27 02:54:45;;;;;;;4.80;1.70;;;;;;;;;;5015973;28;20209;-71
2023/06/27 02:57:13;;;;;;;5.17;1.70;;;;;;;;;;5015930;28;20237;-71
2023/06/27 02:59:41;;;;;;;2.97;1.70;;;;;;;;;;5015605;28;20243;-71
2023/06/27 03:02:09;;;;;;;2.97;1.67;;;;;;;;;;5015339;28;20220;-71
2023/06/27 03:04:37;;;;;;;3.00;1.80;;;;;;;;;;5018198;28;20200;-71
2023/06/27 03:07:06;;;;;;;2.57;1.80;;;;;;;;;;5015156;28;20219;-71
2023/06/27 03:09:36;;;;;;;4.83;1.90;;;;;;;;;;5015398;28;20267;-71
2023/06/27 03:12:04;;;;;;;3.03;1.87;;;;;;;;;;5017256;28;20796;-71
2023/06/27 03:14:32;;;;;;;2.87;1.80;;;;;;;;;;5018084;28;20216;-71
2023/06/27 03:17:00;;;;;;;5.37;2.07;;;;;;;;;;5017908;28;20247;-70
2023/06/27 03:19:28;;;;;;;4.90;1.87;;;;;;;;;;5018047;28;20222;-70
2023/06/27 03:22:11;;;;;;;5.47;1.77;;;;;;;;;;5017978;28;20315;-70
2023/06/27 03:24:40;;;;;;;4.67;1.73;;;;;;;;;;5023736;28;20238;-70
2023/06/27 03:27:08;;;;;;;2.30;1.80;;;;;;;;;;5018061;28;20212;-70
2023/06/27 03:29:36;;;;;;;4.23;1.90;;;;;;;;;;5017951;28;20212;-70
2023/06/27 03:32:04;;;;;;;3.97;1.97;;;;;;;;;;5029758;28;20223;-70
2023/06/27 03:34:32;;;;;;;4.17;2.03;;;;;;;;;;5018073;28;20211;-70
2023/06/27 03:37:00;;;;;;;3.37;1.70;;;;;;;;;;5017795;28;20211;-70
2023/06/27 03:39:29;;;;;;;1.97;1.67;;;;;;;;;;5017787;28;20630;-70
2023/06/27 03:41:58;;;;;;;2.10;1.80;;;;;;;;;;5017683;28;20594;-70
2023/06/27 03:44:28;;;;;;;6.33;1.80;;;;;;;;;;5017784;28;20557;-70
2023/06/27 03:46:56;;;;;;;4.37;1.83;;;;;;;;;;5018024;28;20245;-70
2023/06/27 03:49:24;;;;;;;3.07;1.93;;;;;;;;;;5017883;28;20206;-70
2023/06/27 03:51:51;;;;;;;3.20;1.77;;;;;;;;;;5029966;28;20338;-71
2023/06/27 03:54:19;;;;;;;2.20;1.80;;;;;;;;;;5017631;28;20215;-71
2023/06/27 03:56:48;;;;;;;3.63;1.90;;;;;;;;;;5017840;28;20213;-71
2023/06/27 03:59:17;;;;;;;3.87;1.80;;;;;;;;;;5018008;28;20265;-71
2023/06/27 04:01:45;;;;;;;6.43;1.77;;;;;;;;;;5017226;28;20234;-71
2023/06/27 04:04:13;;;;;;;4.20;1.93;;;;;;;;;;5009044;28;20210;-72
2023/06/27 04:06:42;;;;;;;4.37;2.17;;;;;;;;;;5017771;28;20213;-71
2023/06/27 04:09:10;;;;;;;2.00;1.80;;;;;;;;;;5017489;28;20665;-71
2023/06/27 04:11:38;;;;;;;1.67;1.57;;;;;;;;;;5017566;28;20230;-71
2023/06/27 04:14:06;;;;;;;2.67;1.90;;;;;;;;;;5017851;28;20208;-71
2023/06/27 04:16:35;;;;;;;6.07;1.80;;;;;;;;;;5011444;28;20897;-71
2023/06/27 04:19:03;;;;;;;3.97;1.90;;;;;;;;;;5006028;28;20230;-71
2023/06/27 04:21:31;;;;;;;5.47;2.27;;;;;;;;;;5006963;28;20230;-71
2023/06/27 04:24:00;;;;;;;6.83;2.10;;;;;;;;;;5007227;28;20243;-71
2023/06/27 04:26:28;;;;;;;7.23;2.30;;;;;;;;;;5008163;28;20217;-71
2023/06/27 04:28:56;;;;;;;3.57;1.90;;;;;;;;;;5004874;28;20208;-70
2023/06/27 04:31:25;;;;;;;2.53;1.83;;;;;;;;;;5009009;28;20272;-70
2023/06/27 04:33:59;;;;;;;3.73;1.60;;;;;;;;;;5012075;28;20207;-70
2023/06/27 04:36:28;;;;;;;2.43;2.10;;;;;;;;;;5008599;28;20575;-70
2023/06/27 04:38:56;;;;;;;4.57;1.97;;;;;;;;;;4997837;28;20229;-71
2023/06/27 04:41:28;;;;;;;2.37;1.70;;;;;;;;;;4997716;28;20701;-70
2023/06/27 04:43:59;;;;;;;4.17;2.00;;;;;;;;;;4998312;28;20272;-71
2023/06/27 04:46:28;;;;;;;2.73;1.60;;;;;;;;;;5001612;28;20218;-70
2023/06/27 04:48:58;;;;;;;4.83;1.97;;;;;;;;;;5001205;28;20208;-70
2023/06/27 04:51:27;;;;;;;5.07;2.00;;;;;;;;;;5013393;28;20285;-70
2023/06/27 04:53:55;;;;;;;2.97;1.87;;;;;;;;;;5020705;28;20214;-72
2023/06/27 04:56:23;;;;;;;4.50;2.00;;;;;;;;;;5020872;28;20215;-70
2023/06/27 04:58:52;;;;;;;3.90;1.90;;;;;;;;;;5020728;28;20234;-70
2023/06/27 05:01:20;;;;;;;4.77;2.23;;;;;;;;;;5018590;28;20288;-70
2023/06/27 05:03:48;;;;;;;4.80;1.63;;;;;;;;;;5009457;28;20207;-72
2023/06/27 05:06:18;;;;;;;2.10;1.90;;;;;;;;;;5022089;28;20255;-71
2023/06/27 05:08:46;;;;;;;5.17;2.30;;;;;;;;;;5020195;28;20216;-70
2023/06/27 05:11:14;;;;;;;6.83;2.07;;;;;;;;;;5026571;28;20226;-69
2023/06/27 05:13:42;;;;;;;3.60;2.00;;;;;;;;;;5009060;28;20213;-67
2023/06/27 05:16:10;;;;;;;3.60;1.87;;;;;;;;;;5020464;28;20209;-70
2023/06/27 05:18:38;;;;;;;4.23;1.87;;;;;;;;;;5020508;28;20344;-71
2023/06/27 05:21:06;;;;;;;2.93;2.00;;;;;;;;;;5020083;28;20224;-70
2023/06/27 05:23:35;;;;;;;3.60;2.10;;;;;;;;;;5019338;28;20591;-71
2023/06/27 05:26:04;;;;;;;4.90;2.10;;;;;;;;;;5020182;28;20235;-72
2023/06/27 05:28:32;;;;;;;4.07;2.10;;;;;;;;;;5019983;28;20200;-72
2023/06/27 05:31:00;;;;;;;3.57;2.10;;;;;;;;;;5020746;28;20224;-73
2023/06/27 05:33:28;;;;;;;3.43;1.83;;;;;;;;;;5019382;28;20214;-73
2023/06/27 05:35:56;;;;;;;3.83;1.90;;;;;;;;;;5015508;28;20252;-72
2023/06/27 05:38:24;;;;;;;4.70;2.57;;;;;;;;;;5019015;28;20684;-73
2023/06/27 05:40:54;;;;;;;4.83;2.10;;;;;;;;;;5016285;28;20222;-71
2023/06/27 05:43:23;;;;;;;3.20;2.03;;;;;;;;;;5017188;28;20235;-71
2023/06/27 05:45:51;;;;;;;2.63;1.97;;;;;;;;;;5016698;28;20209;-72
2023/06/27 05:48:19;;;;;;;5.17;3.70;;;;;;;;;;5019064;28;20206;-71
2023/06/27 05:50:47;;;;;;;3.10;1.93;;;;;;;;;;5019210;28;20250;-72
2023/06/27 05:53:15;;;;;;;3.80;1.70;;;;;;;;;;5016149;28;20248;-71
2023/06/27 05:55:43;;;;;;;3.03;2.23;;;;;;;;;;5018073;28;20201;-72
2023/06/27 05:58:12;;;;;;;3.77;1.87;;;;;;;;;;5016317;28;20656;-70
2023/06/27 06:00:40;;;;;;;6.90;2.30;;;;;;;;;;5017143;28;20228;-72
2023/06/27 06:03:08;;;;;;;2.30;2.07;;;;;;;;;;5005311;28;20664;-71
2023/06/27 06:05:36;;;;;;;4.80;1.53;;;;;;;;;;5001582;28;20214;-71
2023/06/27 06:08:05;;;;;;;5.30;2.30;;;;;;;;;;5016557;28;20288;-71
2023/06/27 06:10:33;;;;;;;5.53;2.10;;;;;;;;;;5017314;28;20670;-72
2023/06/27 06:13:01;;;;;;;4.57;2.27;;;;;;;;;;5015046;28;20247;-71
2023/06/27 06:15:30;;;;;;;4.70;2.10;;;;;;;;;;5016541;28;20207;-71
2023/06/27 06:17:58;;;;;;;2.53;1.70;;;;;;;;;;5016076;28;20205;-69
2023/06/27 06:20:29;;;;;;;6.40;2.40;;;;;;;;;;5015693;28;20224;-72
2023/06/27 06:22:59;;;;;;;4.20;1.90;;;;;;;;;;5015050;28;20209;-72
2023/06/27 06:25:27;;;;;;;4.97;1.90;;;;;;;;;;5014819;28;20200;-73
2023/06/27 06:27:55;;;;;;;2.77;1.63;;;;;;;;;;5015672;28;20212;-71
2023/06/27 06:30:23;;;;;;;6.10;1.97;;;;;;;;;;5017058;28;20201;-71
2023/06/27 06:32:53;;;;;;;7.20;2.20;;;;;;;;;;5016291;28;20206;-71
2023/06/27 06:35:21;;;;;;;5.70;2.50;;;;;;;;;;5018737;28;20231;-71
2023/06/27 06:37:49;;;;;;;2.77;1.97;;;;;;;;;;5018019;28;20213;-71
2023/06/27 06:40:17;;;;;;;6.77;2.40;;;;;;;;;;5016247;28;20224;-72
2023/06/27 06:42:45;;;;;;;2.20;1.93;;;;;;;;;;5006735;28;20214;-71
2023/06/27 06:45:13;;;;;;;4.43;2.30;;;;;;;;;;5018252;28;20215;-72
2023/06/27 06:47:41;;;;;;;4.27;2.10;;;;;;;;;;5018599;28;20270;-70
2023/06/27 06:50:11;;;;;;;4.60;2.03;;;;;;;;;;5019562;28;20234;-71
2023/06/27 06:52:40;;;;;;;4.80;1.97;;;;;;;;;;5028866;28;20210;-70
2023/06/27 06:55:08;;;;;;;4.63;1.73;;;;;;;;;;5018477;28;20212;-70
2023/06/27 06:57:36;;;;;;;6.97;2.10;;;;;;;;;;5018077;28;20206;-71
2023/06/27 07:00:05;;;;;;;3.37;1.80;;;;;;;;;;5018019;28;20722;-72
2023/06/27 07:02:33;;;;;;;7.90;2.00;;;;;;;;;;5017769;28;20287;-73
2023/06/27 07:05:01;;;;;;;4.87;2.57;;;;;;;;;;5017903;28;20213;-73
2023/06/27 07:07:31;;;;;;;5.57;1.80;;;;;;;;;;5017185;28;20626;-73
2023/06/27 07:09:59;;;;;;;4.67;2.50;;;;;;;;;;5017773;28;20209;-73
2023/06/27 07:12:27;;;;;;;3.70;1.60;;;;;;;;;;5017589;28;20634;-73
2023/06/27 07:14:55;;;;;;;9.60;2.17;;;;;;;;;;5016613;28;20200;-74
2023/06/27 07:17:23;;;;;;;3.67;1.77;;;;;;;;;;5011665;28;20310;-74
2023/06/27 07:19:51;;;;;;;4.20;2.00;;;;;;;;;;5016980;28;20232;-74
2023/06/27 07:22:19;;;;;;;6.20;1.90;;;;;;;;;;5017362;28;20229;-74
2023/06/27 07:24:50;;;;;;;4.13;1.63;;;;;;;;;;5016602;28;20742;-74
2023/06/27 07:27:18;;;;;;;4.43;1.60;;;;;;;;;;5016248;28;20304;-74
2023/06/27 07:29:46;;;;;;;6.40;2.00;;;;;;;;;;5014615;28;20247;-74
2023/06/27 07:32:14;;;;;;;7.50;2.00;;;;;;;;;;5015384;28;20701;-74
2023/06/27 07:34:50;;;;;;;1.80;1.27;;;;;;;;;;5016310;28;20264;-67
2023/06/27 07:37:18;;;;;;;7.23;2.00;;;;;;;;;;5011871;28;20327;-75
2023/06/27 07:39:46;;;;;;;4.90;2.30;;;;;;;;;;5014630;28;20223;-75
2023/06/27 07:42:17;;;;;;;3.27;1.80;;;;;;;;;;5016897;28;20282;-69
2023/06/27 07:44:45;;;;;;;5.77;1.90;;;;;;;;;;5013146;28;20209;-71
2023/06/27 07:47:13;;;;;;;7.87;1.80;;;;;;;;;;5013121;28;20225;-72
2023/06/27 07:49:41;;;;;;;1.97;1.53;;;;;;;;;;5017436;28;20204;-71
2023/06/27 07:52:10;;;;;;;9.27;1.93;;;;;;;;;;5019171;28;20280;-74
2023/06/27 07:54:38;;;;;;;7.00;2.17;;;;;;;;;;5016869;28;20202;-73
2023/06/27 07:57:07;;;;;;;3.90;1.70;;;;;;;;;;5015283;28;20212;-73
2023/06/27 07:59:36;;;;;;;3.43;1.60;;;;;;;;;;5015955;28;20203;-73
2023/06/27 08:02:04;;;;;;;5.70;1.67;;;;;;;;;;5012325;28;20244;-71
2023/06/27 08:04:33;;;;;;;2.90;1.60;;;;;;;;;;5017190;28;20208;-72
2023/06/27 08:07:01;;;;;;;3.57;1.60;;;;;;;;;;5016604;28;20209;-74
2023/06/27 08:09:29;;;;;;;3.73;2.03;;;;;;;;;;5016752;28;20231;-68
2023/06/27 08:11:57;;;;;;;6.57;2.07;;;;;;;;;;5014729;28;20234;-65
2023/06/27 08:14:28;;;;;;;10.07;1.97;;;;;;;;;;5014886;28;20207;-64
2023/06/27 08:16:59;;;;;;;8.63;2.13;;;;;;;;;;5017020;28;20203;-65
2023/06/27 08:19:28;;;;;;;14.60;5.83;;;;;;;;;;5014669;28;20197;-70
2023/06/27 08:21:56;;;;;;;60.40;34.30;;;;;;;;;;5019247;28;20225;-72
2023/06/27 08:24:24;;;;;;;11.50;6.43;;;;;;;;;;5015921;28;20232;-72
2023/06/27 08:26:55;;;;;;;8.30;5.00;;;;;;;;;;5018579;28;20752;-71
2023/06/27 08:29:25;;;;;;;8.27;4.20;;;;;;;;;;5017742;28;20664;-70
2023/06/27 08:31:58;;;;;;;7.80;3.90;;;;;;;;;;5023180;28;20707;-72
2023/06/27 08:34:31;;;;;;;12.87;4.17;;;;;;;;;;5018351;28;20233;-71
2023/06/27 08:37:00;;;;;;;7.87;3.50;;;;;;;;;;5018833;28;20207;-72
2023/06/27 08:39:28;;;;;;;8.30;3.47;;;;;;;;;;5020845;28;20198;-72
2023/06/27 08:41:57;;;;;;;6.97;2.27;;;;;;;;;;5019403;28;20226;-73
2023/06/27 08:44:25;;;;;;;6.00;2.10;;;;;;;;;;5001384;28;20214;-71
2023/06/27 08:46:53;;;;;;;7.73;2.00;;;;;;;;;;5004700;28;20691;-72
2023/06/27 08:49:22;;;;;;;2.27;1.70;;;;;;;;;;5020639;28;20721;-72
2023/06/27 08:51:55;;;;;;;7.80;2.50;;;;;;;;;;5033221;28;20252;-72
2023/06/27 08:54:24;;;;;;;8.43;2.40;;;;;;;;;;5020644;28;20229;-72
2023/06/27 08:56:53;;;;;;;4.27;2.30;;;;;;;;;;5017791;28;20202;-72
2023/06/27 08:59:25;;;;;;;2.80;2.07;;;;;;;;;;5018805;28;20197;-71
2023/06/27 09:01:54;;;;;;;9.40;2.20;;;;;;;;;;5017415;28;20249;-71
2023/06/27 09:04:22;;;;;;;8.73;2.37;;;;;;;;;;5016242;28;20585;-72
2023/06/27 09:06:52;;;;;;;5.97;2.10;;;;;;;;;;5020245;28;20249;-75
2023/06/27 09:09:21;;;;;;;99.40;66.03;;;;;;;;;;5020637;28;20208;-68
2023/06/27 09:11:51;;;;;;;100.77;68.00;;;;;;;;;;5020213;28;20594;-69
2023/06/27 09:14:19;;;;;;;13.90;9.50;;;;;;;;;;5020180;28;20211;-68
2023/06/27 09:16:47;;;;;;;11.57;5.77;;;;;;;;;;5020560;28;20273;-67
2023/06/27 09:19:15;;;;;;;4.90;3.00;;;;;;;;;;5020180;28;20213;-61
2023/06/27 09:21:45;;;;;;;8.73;4.40;;;;;;;;;;5019503;28;20726;-63
2023/06/27 09:24:14;;;;;;;6.23;4.33;;;;;;;;;;5025629;28;20256;-65
2023/06/27 09:26:42;;;;;;;9.27;3.37;;;;;;;;;;5020046;28;20220;-67
2023/06/27 09:29:10;;;;;;;5.53;2.47;;;;;;;;;;5004681;28;20237;-63
2023/06/27 09:31:38;;;;;;;4.53;2.30;;;;;;;;;;5016701;28;20229;-64
2023/06/27 09:34:07;;;;;;;5.43;2.10;;;;;;;;;;5018126;28;20243;-66
2023/06/27 09:36:37;;;;;;;165.07;118.47;;;;;;;;;;5016606;28;20720;-72
2023/06/27 09:39:09;;;;;;;18.43;12.03;;;;;;;;;;5018273;28;20286;-64
2023/06/27 09:41:44;;;;;;;11.27;7.30;;;;;;;;;;5011227;28;20232;-62
2023/06/27 09:44:13;;;;;;;6.00;2.87;;;;;;;;;;5019889;28;20272;-63
2023/06/27 09:46:42;;;;;;;11.47;4.13;;;;;;;;;;5007371;28;20572;-64
2023/06/27 09:49:10;;;;;;;11.03;3.53;;;;;;;;;;5000065;28;20552;-67
2023/06/27 09:51:38;;;;;;;2.57;2.20;;;;;;;;;;5013867;28;20233;-67
2023/06/27 09:54:06;;;;;;;6.33;2.30;;;;;;;;;;5019449;28;20259;-71
2023/06/27 09:56:35;;;;;;;3.53;1.80;;;;;;;;;;5018971;28;20656;-66
2023/06/27 09:59:17;;;;;;;7.97;2.77;;;;;;;;;;5017746;28;20204;-61
2023/06/27 10:01:52;;;;;;;8.03;3.83;;;;;;;;;;5012780;28;20591;-68
2023/06/27 10:04:21;;;;;;;4.07;1.97;;;;;;;;;;5019244;28;20201;-82
2023/06/27 10:06:52;;;;;;;3.97;1.63;;;;;;;;;;5019526;28;20324;-77
2023/06/27 10:09:21;;;;;;;2.33;1.60;;;;;;;;;;5019414;28;20208;-75
2023/06/27 10:11:50;;;;;;;35.67;22.73;;;;;;;;;;5019178;28;20228;-80
2023/06/27 10:14:20;;;;;;;8.10;6.17;;;;;;;;;;5005677;28;20217;-72
2023/06/27 10:16:48;;;;;;;4.70;1.90;;;;;;;;;;5013772;28;20196;-74
2023/06/27 10:19:17;;;;;;;2.10;1.43;;;;;;;;;;5018911;28;20212;-73
2023/06/27 10:21:45;;;;;;;5.40;2.20;;;;;;;;;;5018835;28;20233;-73
2023/06/27 10:24:13;;;;;;;2.70;1.97;;;;;;;;;;5022563;28;20243;-73
2023/06/27 10:26:42;;;;;;;4.60;1.80;;;;;;;;;;5019119;28;20220;-73
2023/06/27 10:29:16;;;;;;;3.80;1.57;;;;;;;;;;5018864;28;20615;-73
2023/06/27 10:31:45;;;;;;;6.93;1.93;;;;;;;;;;5027775;28;20218;-73
2023/06/27 10:34:20;;;;;;;7.30;2.00;;;;;;;;;;5021214;28;20296;-73
2023/06/27 10:36:52;;;;;;;6.67;1.93;;;;;;;;;;5018503;28;20647;-73
2023/06/27 10:39:25;;;;;;;2.63;1.67;;;;;;;;;;5018806;28;20221;-73
2023/06/27 10:41:55;;;;;;;5.20;1.70;;;;;;;;;;5018182;28;20238;-73
2023/06/27 10:44:24;;;;;;;7.10;1.60;;;;;;;;;;5018599;28;20203;-73
2023/06/27 10:47:25;;;;;;;4.40;1.83;;;;;;;;;;5016814;28;20208;-71
2023/06/27 10:50:01;;;;;;;5.67;1.70;;;;;;;;;;5009752;28;20211;-73
2023/06/27 10:52:29;;;;;;;5.90;1.97;;;;;;;;;;5005327;28;20220;-73
2023/06/27 10:55:18;;;;;;;3.97;1.80;;;;;;;;;;5018426;28;20208;-73
2023/06/27 10:57:48;;;;;;;3.20;1.70;;;;;;;;;;5017566;28;20203;-73
2023/06/27 11:00:17;;;;;;;3.53;1.73;;;;;;;;;;5017811;28;20308;-73
2023/06/27 11:02:46;;;;;;;8.97;1.60;;;;;;;;;;5018276;28;20240;-73
2023/06/27 11:05:16;;;;;;;5.10;2.10;;;;;;;;;;5018141;28;20213;-73
2023/06/27 11:07:52;;;;;;;1.90;1.50;;;;;;;;;;5018337;28;20214;-73
2023/06/27 11:10:23;;;;;;;4.93;1.70;;;;;;;;;;5016627;28;20208;-73
2023/06/27 11:12:52;;;;;;;4.73;1.53;;;;;;;;;;5016392;28;20206;-73
2023/06/27 11:15:21;;;;;;;2.03;1.60;;;;;;;;;;5015943;28;20209;-73
2023/06/27 11:17:51;;;;;;;4.00;1.60;;;;;;;;;;5016414;28;20213;-73
2023/06/27 11:20:19;;;;;;;4.10;1.97;;;;;;;;;;5016615;28;20359;-73
2023/06/27 11:22:47;;;;;;;4.03;1.70;;;;;;;;;;5015629;28;20603;-73
2023/06/27 11:25:15;;;;;;;3.60;1.80;;;;;;;;;;5022582;28;20240;-71
2023/06/27 11:27:43;;;;;;;5.77;1.90;;;;;;;;;;5016112;28;20215;-71
2023/06/27 11:30:11;;;;;;;3.40;1.60;;;;;;;;;;5015944;28;20661;-72
2023/06/27 11:32:40;;;;;;;4.53;1.30;;;;;;;;;;5029461;28;20203;-72
2023/06/27 11:35:10;;;;;;;10.40;2.33;;;;;;;;;;5018268;28;20218;-72
2023/06/27 11:37:38;;;;;;;8.27;1.70;;;;;;;;;;5017295;28;20211;-72
2023/06/27 11:40:08;;;;;;;5.33;1.67;;;;;;;;;;5013838;28;20211;-73
2023/06/27 11:42:36;;;;;;;3.23;1.50;;;;;;;;;;5017728;28;20281;-72
2023/06/27 11:45:04;;;;;;;3.97;1.63;;;;;;;;;;5017421;28;20235;-72
2023/06/27 11:47:32;;;;;;;1.67;1.50;;;;;;;;;;5017617;28;20669;-71
2023/06/27 11:50:12;;;;;;;3.93;1.20;;;;;;;;;;5018057;28;20209;-72
2023/06/27 11:52:41;;;;;;;3.20;1.80;;;;;;;;;;5005540;28;20206;-71
2023/06/27 11:55:09;;;;;;;6.93;1.90;;;;;;;;;;5015017;28;20237;-67
2023/06/27 11:57:41;;;;;;;3.30;2.10;;;;;;;;;;5021324;28;20201;-73
2023/06/27 12:00:13;;;;;;;3.50;2.30;;;;;;;;;;5017955;28;20264;-68
2023/06/27 12:02:43;;;;;;;10.57;2.97;;;;;;;;;;5017822;28;20229;-69
2023/06/27 12:05:16;;;;;;;3.87;1.90;;;;;;;;;;5021639;28;20210;-71
2023/06/27 12:07:58;;;;;;;1.77;1.40;;;;;;;;;;5021083;28;20297;-67
2023/06/27 12:10:26;;;;;;;6.97;1.80;;;;;;;;;;5014208;28;20241;-63
2023/06/27 12:12:53;;;;;;;6.57;2.10;;;;;;;;;;5001965;28;20211;-64
2023/06/27 12:15:22;;;;;;;4.73;2.43;;;;;;;;;;5001962;28;20215;-66
2023/06/27 12:17:56;;;;;;;3.30;1.93;;;;;;;;;;5001632;28;20623;-65
2023/06/27 12:20:26;;;;;;;2.30;1.57;;;;;;;;;;5001691;28;20214;-65
2023/06/27 12:22:54;;;;;;;7.43;2.10;;;;;;;;;;5007525;28;20234;-67
2023/06/27 12:25:22;;;;;;;4.67;1.93;;;;;;;;;;5019381;28;20237;-64
2023/06/27 12:27:50;;;;;;;9.27;2.20;;;;;;;;;;5020577;28;20575;-64
2023/06/27 12:30:18;;;;;;;3.97;2.20;;;;;;;;;;5016337;28;20209;-65
2023/06/27 12:32:46;;;;;;;5.37;2.50;;;;;;;;;;5019061;28;20663;-64
2023/06/27 12:35:17;;;;;;;3.83;2.00;;;;;;;;;;5020003;28;20669;-64
2023/06/27 12:37:47;;;;;;;48.27;34.40;;;;;;;;;;5017574;28;20254;-64
2023/06/27 12:40:16;;;;;;;64.23;43.60;;;;;;;;;;5019749;28;20889;-62
2023/06/27 12:42:45;;;;;;;7.90;6.10;;;;;;;;;;5013778;28;20264;-63
2023/06/27 12:45:13;;;;;;;7.53;4.10;;;;;;;;;;5011195;28;20209;-63
2023/06/27 12:47:43;;;;;;;4.43;2.37;;;;;;;;;;5018427;28;20252;-63
2023/06/27 12:50:11;;;;;;;6.07;2.33;;;;;;;;;;5019573;28;20208;-64
2023/06/27 12:52:47;;;;;;;9.47;2.00;;;;;;;;;;5031494;28;20223;-64
2023/06/27 12:55:16;;;;;;;4.90;2.37;;;;;;;;;;5016186;28;20201;-64
2023/06/27 13:01:06;;;;;;;3.60;1.97;;;;;;;;;;5013303;28;20203;-71
2023/06/27 13:06:56;;;;;;;3.83;1.60;;;;;;;;;;5013413;28;20240;-68
2023/06/27 13:09:25;;;;;;;2.57;1.20;;;;;;;;;;5019993;28;20237;-69
2023/06/27 13:11:54;;;;;;;4.43;1.73;;;;;;;;;;5019915;28;20597;-68
2023/06/27 13:14:23;;;;;;;1.30;1.20;;;;;;;;;;5002748;28;20211;-72
2023/06/27 13:16:51;;;;;;;5.10;1.93;;;;;;;;;;5019917;28;20620;-63
2023/06/27 13:22:48;;;;;;;112.13;96.33;;;;;;;;;;5010733;28;20242;-73
2023/06/27 13:25:16;;;;;;;124.43;82.30;;;;;;;;;;5019579;28;20203;-76
2023/06/27 13:31:07;;;;;;;5.93;2.90;;;;;;;;;;5011383;28;20277;-61
2023/06/27 13:36:57;;;;;;;3.20;1.77;;;;;;;;;;5014622;28;20239;-62
2023/06/27 13:39:26;;;;;;;4.77;1.70;;;;;;;;;;5018714;28;20206;-69
2023/06/27 13:49:17;;;;;;;7.40;2.57;;;;;;;;;;5017521;28;20734;-70
2023/06/27 13:51:51;;;;;;;3.47;1.87;;;;;;;;;;5020749;28;20340;-70
2023/06/27 13:54:23;;;;;;;3.60;1.73;;;;;;;;;;5016646;28;20202;-65
2023/06/27 13:56:50;;;;;;;7.23;1.90;;;;;;;;;;5016039;28;20227;-65
2023/06/27 14:05:23;;;;;;;53.27;40.50;;;;;;;;;;5061526;28;20242;-62
2023/06/27 14:07:54;;;;;;;74.50;54.37;;;;;;;;;;5064412;28;20687;-62
2023/06/27 14:10:23;;;;;;;11.77;5.83;;;;;;;;;;5077449;28;20203;-61
2023/06/27 14:12:51;;;;;;;7.07;3.43;;;;;;;;;;5065036;28;20226;-59
2023/06/27 14:15:19;;;;;;;7.53;2.43;;;;;;;;;;5064975;28;20794;-59
2023/06/27 14:17:48;;;;;;;4.83;2.33;;;;;;;;;;5062451;28;20213;-62
2023/06/27 14:20:17;;;;;;;3.47;1.60;;;;;;;;;;5067430;28;20798;-62
2023/06/27 14:22:47;;;;;;;3.90;1.80;;;;;;;;;;5065079;28;20227;-64
2023/06/27 14:25:19;;;;;;;2.83;1.60;;;;;;;;;;5073940;28;20210;-63
2023/06/27 14:27:53;;;;;;;4.20;1.47;;;;;;;;;;5072391;28;20616;-64
2023/06/27 14:30:21;;;;;;;6.70;1.83;;;;;;;;;;5072876;28;20207;-62
2023/06/27 14:32:53;;;;;;;1.33;1.10;;;;;;;;;;5064541;28;20234;-63
2023/06/27 14:35:22;;;;;;;5.00;1.50;;;;;;;;;;5067710;28;20271;-63
2023/06/27 14:37:51;;;;;;;110.43;76.07;;;;;;;;;;5065714;28;20204;-65
2023/06/27 14:40:21;;;;;;;11.17;7.47;;;;;;;;;;5068383;28;20230;-64
2023/06/27 14:42:49;;;;;;;5.47;1.87;;;;;;;;;;5064373;28;20220;-64
2023/06/27 14:45:18;;;;;;;6.00;2.50;;;;;;;;;;5067685;28;20254;-62
2023/06/27 14:47:47;;;;;;;13.97;4.20;;;;;;;;;;5068440;28;20671;-62
2023/06/27 14:50:17;;;;;;;6.10;2.03;;;;;;;;;;5066652;28;20205;-64
2023/06/27 14:52:46;;;;;;;5.97;2.63;;;;;;;;;;5069829;28;20232;-64
2023/06/27 14:55:15;;;;;;;5.93;1.97;;;;;;;;;;5065748;28;20196;-64
2023/06/27 14:57:45;;;;;;;5.30;2.60;;;;;;;;;;5072943;28;20262;-65
2023/06/27 15:00:15;;;;;;;3.83;2.30;;;;;;;;;;5063870;28;20206;-66
2023/06/27 15:02:44;;;;;;;1.83;1.27;;;;;;;;;;5069798;28;20707;-65
2023/06/27 15:08:35;;;;;;;4.80;1.80;;;;;;;;;;5071091;28;20219;-75
2023/06/27 15:11:09;;;;;;;30.03;23.23;;;;;;;;;;5077917;28;20200;-70
2023/06/27 15:13:41;;;;;;;30.57;21.97;;;;;;;;;;5075421;28;20305;-68
2023/06/27 15:16:10;;;;;;;80.97;58.33;;;;;;;;;;5070471;28;20239;-71
2023/06/27 15:18:38;;;;;;;5.50;4.17;;;;;;;;;;5077571;28;20203;-63
2023/06/27 15:21:15;;;;;;;2.83;1.70;;;;;;;;;;5070977;28;20295;-71
2023/06/27 15:23:45;;;;;;;4.13;2.40;;;;;;;;;;5071932;28;20235;-71
2023/06/27 15:26:16;;;;;;;3.73;1.90;;;;;;;;;;5076498;28;20657;-65